Listowel, Canada
Current Conditions -  °F | °C
As of 12:00 PM on Thursday 18 Dec 2014 (Local Time) from CYKF Reporting Station
Overcast Overcast  
Wind Chill: 18°   Ceiling: 800
Heat Index: 28°   Visibility: 9mi
Dew Point: 25°   Wind: 12mph
Humidity: 86%   Direction: 300°WNW
Pressure: 30.08"   Gusts: NA
Location:  43.73°N, 80.97°W
Report Text: CYKF 181700Z AUTO 30010KT 9SM OVC008 M02/M04 A3008 RMK SLP201
Loading
Personal Weather Stations






























Interactive Weather Map New forecast layout! Learn more

10-Day Weather Forecast

Advertisements
Track Severe Weather on mobile